Milford, Missouri
Current Conditions -  °F | °C
As of 1:15 AM on Sunday 23 Nov 2014 (Local Time) from KPTS Reporting Station
Overcast Overcast  
Wind Chill: 56°   Ceiling: 10000
Heat Index: NA   Visibility: 10mi
Dew Point: 56°   Wind: 8mph
Humidity: NA   Direction: 160°SSE
Pressure: 29.66"   Gusts: NA
Location:  37.58°N, 94.16°W
Report Text: KPTS 230715Z AUTO 16007KT 10SM OVC100 13/14 A2966 RMK AO2 T01330135
Loading
Personal Weather Stations






























Interactive Weather Map New forecast layout! Learn more

10-Day Weather Forecast

Advertisements
Track Severe Weather on mobile